Maeva Solo Sailor — FL2998 — position and weather

sailwx.info

Track history (hours):
 
Tides and Currents Weather Stations Pressure Air Temp Water Temp Dewpoint Dewpoint Depression Visibility Wind Speed Wind Dir Waves Ship Positions

Maeva Solo Sailor

Last reported at 2017-Dec-23 06:31 UTC. Time now 2018-Feb-24 14:06 UTC.
Position N 48°34' W 002°41'.
Warning: this ship's position is months out of date.

Length 9 m.

Type: Sailing vessel. MMSI: 227165040.

Date/timePositionNaut miles runAvg speedWind from/ knotsBaromVisibWave heightAir tempDewpointWater temp
2017-Dec-23 06:31N 48°34' W 002°41'0 2.7
2017-Dec-23 06:28N 48°34' W 002°41'2 4.2
2017-Dec-23 05:58N 48°36' W 002°41'4 4.7
2017-Dec-23 05:09N 48°40' W 002°40'1 4.5
2017-Dec-23 05:00N 48°41' W 002°40'2 4.4
2017-Dec-23 04:30N 48°43' W 002°40'2 4.4
2017-Dec-23 03:59N 48°45' W 002°40'3 4.2
2017-Dec-23 03:19N 48°48' W 002°39'1 4.0
2017-Dec-23 02:58N 48°49' W 002°39'39 2.0
2017-Dec-22 07:02N 49°28' W 002°30'0 4.7
2017-Dec-22 07:00N 49°28' W 002°30'2 3.9
2017-Dec-22 06:30N 49°30' W 002°28'  
Track history (hours):
 
Tides and Currents Weather Stations Pressure Air Temp Water Temp Dewpoint Dewpoint Depression Visibility Wind Speed Wind Dir Waves Ship Positions

Maeva Solo Sailor

Last reported at 2017-Dec-23 06:31 UTC. Time now 2018-Feb-24 14:06 UTC.
Position N 48°34' W 002°41'.
Warning: this ship's position is months out of date.

Length 9 m.

Type: Sailing vessel. MMSI: 227165040.

Date/timePositionNaut miles runAvg speedWind from/ knotsBaromVisibWave heightAir tempDewpointWater temp
2017-Dec-23 06:31N 48°34' W 002°41'0 2.7
2017-Dec-23 06:28N 48°34' W 002°41'2 4.2
2017-Dec-23 05:58N 48°36' W 002°41'4 4.7
2017-Dec-23 05:09N 48°40' W 002°40'1 4.5
2017-Dec-23 05:00N 48°41' W 002°40'2 4.4
2017-Dec-23 04:30N 48°43' W 002°40'2 4.4
2017-Dec-23 03:59N 48°45' W 002°40'3 4.2
2017-Dec-23 03:19N 48°48' W 002°39'1 4.0
2017-Dec-23 02:58N 48°49' W 002°39'39 2.0
2017-Dec-22 07:02N 49°28' W 002°30'0 4.7
2017-Dec-22 07:00N 49°28' W 002°30'2 3.9
2017-Dec-22 06:30N 49°30' W 002°28'  

Dump ship's entire track history